sensor_id;sensor_type;location;lat;lon;timestamp;pressure;altitude;pressure_sealevel;temperature;humidity
36692;BME280;22678;52.052;4.242;2022-11-21T00:01:21;100637.97;;;6.38;94.78
36692;BME280;22678;52.052;4.242;2022-11-21T00:03:47;100645.81;;;6.40;95.05
36692;BME280;22678;52.052;4.242;2022-11-21T00:06:13;100627.47;;;6.29;94.80
36692;BME280;22678;52.052;4.242;2022-11-21T00:08:38;100628.34;;;6.31;95.12
36692;BME280;22678;52.052;4.242;2022-11-21T00:11:03;100644.94;;;6.33;94.93
36692;BME280;22678;52.052;4.242;2022-11-21T00:13:29;100637.84;;;6.20;95.19
36692;BME280;22678;52.052;4.242;2022-11-21T00:15:54;100650.97;;;6.23;95.39
36692;BME280;22678;52.052;4.242;2022-11-21T00:18:19;100634.38;;;6.18;95.64
36692;BME280;22678;52.052;4.242;2022-11-21T00:20:45;100629.97;;;6.10;95.51
36692;BME280;22678;52.052;4.242;2022-11-21T00:23:10;100616.03;;;6.04;95.59
36692;BME280;22678;52.052;4.242;2022-11-21T00:25:36;100647.44;;;6.22;95.58
36692;BME280;22678;52.052;4.242;2022-11-21T00:28:03;100646.59;;;6.22;95.99
36692;BME280;22678;52.052;4.242;2022-11-21T00:30:28;100641.38;;;6.22;95.68
36692;BME280;22678;52.052;4.242;2022-11-21T00:32:53;100649.19;;;6.20;95.69
36692;BME280;22678;52.052;4.242;2022-11-21T00:35:19;100648.28;;;6.20;95.65
36692;BME280;22678;52.052;4.242;2022-11-21T00:37:44;100635.22;;;6.15;95.88
36692;BME280;22678;52.052;4.242;2022-11-21T00:40:12;100620.47;;;6.19;96.58
36692;BME280;22678;52.052;4.242;2022-11-21T00:42:38;100609.13;;;6.21;96.52
36692;BME280;22678;52.052;4.242;2022-11-21T00:45:03;100618.81;;;6.33;96.72
36692;BME280;22678;52.052;4.242;2022-11-21T00:47:29;100625.78;;;6.37;97.04
36692;BME280;22678;52.052;4.242;2022-11-21T00:49:54;100603.06;;;6.22;96.85
36692;BME280;22678;52.052;4.242;2022-11-21T00:52:19;100628.47;;;6.46;97.34
36692;BME280;22678;52.052;4.242;2022-11-21T00:54:44;100615.31;;;6.37;97.63
36692;BME280;22678;52.052;4.242;2022-11-21T00:57:10;100625.84;;;6.48;97.21
36692;BME280;22678;52.052;4.242;2022-11-21T00:59:35;100637.19;;;6.56;97.67
36692;BME280;22678;52.052;4.242;2022-11-21T01:02:00;100645.03;;;6.58;98.04
36692;BME280;22678;52.052;4.242;2022-11-21T01:04:30;100613.66;;;6.48;97.96
36692;BME280;22678;52.052;4.242;2022-11-21T01:06:56;100620.66;;;6.54;97.94
36692;BME280;22678;52.052;4.242;2022-11-21T01:09:21;100586.59;;;6.39;97.86
36692;BME280;22678;52.052;4.242;2022-11-21T01:11:46;100622.34;;;6.44;97.51
36692;BME280;22678;52.052;4.242;2022-11-21T01:14:11;100610.03;;;6.25;97.41
36692;BME280;22678;52.052;4.242;2022-11-21T01:16:37;100630.94;;;6.23;97.20
36692;BME280;22678;52.052;4.242;2022-11-21T01:19:02;100604.66;;;6.00;96.78
36692;BME280;22678;52.052;4.242;2022-11-21T01:21:30;100626.44;;;6.02;96.60
36692;BME280;22678;52.052;4.242;2022-11-21T01:23:58;100603.63;;;5.79;96.67
36692;BME280;22678;52.052;4.242;2022-11-21T01:26:25;100611.41;;;5.75;96.39
36692;BME280;22678;52.052;4.242;2022-11-21T01:28:52;100629.66;;;5.72;96.20
36692;BME280;22678;52.052;4.242;2022-11-21T01:31:20;100612.16;;;5.58;96.19
36692;BME280;22678;52.052;4.242;2022-11-21T01:33:46;100625.19;;;5.57;96.38
36692;BME280;22678;52.052;4.242;2022-11-21T01:36:19;100632.06;;;5.49;96.16
36692;BME280;22678;52.052;4.242;2022-11-21T01:38:45;100636.34;;;5.42;95.91
36692;BME280;22678;52.052;4.242;2022-11-21T01:41:13;100557.66;;;4.94;95.90
36692;BME280;22678;52.052;4.242;2022-11-21T01:43:39;100624.81;;;5.17;95.49
36692;BME280;22678;52.052;4.242;2022-11-21T01:46:11;100640.44;;;5.17;95.74
36692;BME280;22678;52.052;4.242;2022-11-21T01:48:49;100646.47;;;5.13;96.12
36692;BME280;22678;52.052;4.242;2022-11-21T01:51:27;100649.03;;;5.06;95.89
36692;BME280;22678;52.052;4.242;2022-11-21T01:57:07;100652.47;;;5.05;96.06
36692;BME280;22678;52.052;4.242;2022-11-21T01:59:47;100655.88;;;5.00;96.24
36692;BME280;22678;52.052;4.242;2022-11-21T02:02:17;100652.44;;;5.02;96.19
36692;BME280;22678;52.052;4.242;2022-11-21T02:04:45;100632.34;;;4.92;96.03
36692;BME280;22678;52.052;4.242;2022-11-21T02:07:12;100641.06;;;4.94;96.14
36692;BME280;22678;52.052;4.242;2022-11-21T02:09:40;100642.00;;;4.99;96.38
36692;BME280;22678;52.052;4.242;2022-11-21T02:12:12;100639.28;;;4.91;96.54
36692;BME280;22678;52.052;4.242;2022-11-21T02:14:41;100657.63;;;4.99;96.42
36692;BME280;22678;52.052;4.242;2022-11-21T02:17:08;100650.66;;;4.98;96.20
36692;BME280;22678;52.052;4.242;2022-11-21T02:19:45;100636.63;;;4.88;96.10
36692;BME280;22678;52.052;4.242;2022-11-21T02:25:02;100623.56;;;4.85;96.20
36692;BME280;22678;52.052;4.242;2022-11-21T02:27:27;100620.03;;;4.77;95.80
36692;BME280;22678;52.052;4.242;2022-11-21T02:29:53;100618.25;;;4.74;95.85
36692;BME280;22678;52.052;4.242;2022-11-21T02:32:23;100609.44;;;4.65;96.15
36692;BME280;22678;52.052;4.242;2022-11-21T02:34:49;100635.56;;;4.71;95.99
36692;BME280;22678;52.052;4.242;2022-11-21T02:37:15;100628.66;;;4.73;96.17
36692;BME280;22678;52.052;4.242;2022-11-21T02:39:41;100617.25;;;4.63;96.10
36692;BME280;22678;52.052;4.242;2022-11-21T02:42:32;100625.09;;;4.68;96.03
36692;BME280;22678;52.052;4.242;2022-11-21T02:45:19;100632.91;;;4.66;96.04
36692;BME280;22678;52.052;4.242;2022-11-21T02:47:47;100625.81;;;4.56;96.07
36692;BME280;22678;52.052;4.242;2022-11-21T02:52:40;100618.94;;;4.58;95.60
36692;BME280;22678;52.052;4.242;2022-11-21T02:55:05;100607.53;;;4.51;95.99
36692;BME280;22678;52.052;4.242;2022-11-21T02:57:31;100612.72;;;4.50;95.86
36692;BME280;22678;52.052;4.242;2022-11-21T02:59:56;100607.47;;;4.45;95.76
36692;BME280;22678;52.052;4.242;2022-11-21T03:02:22;100601.31;;;4.42;95.82
36692;BME280;22678;52.052;4.242;2022-11-21T03:04:47;100603.97;;;4.43;95.91
36692;BME280;22678;52.052;4.242;2022-11-21T03:07:12;100599.56;;;4.37;95.91
36692;BME280;22678;52.052;4.242;2022-11-21T03:09:37;100602.25;;;4.44;95.84
36692;BME280;22678;52.052;4.242;2022-11-21T03:12:07;100604.81;;;4.41;95.95
36692;BME280;22678;52.052;4.242;2022-11-21T03:14:36;100613.47;;;4.39;96.30
36692;BME280;22678;52.052;4.242;2022-11-21T03:17:02;100608.22;;;4.36;96.21
36692;BME280;22678;52.052;4.242;2022-11-21T03:19:28;100596.81;;;4.28;95.97
36692;BME280;22678;52.052;4.242;2022-11-21T03:21:53;100594.22;;;4.28;95.88
36692;BME280;22678;52.052;4.242;2022-11-21T03:24:18;100586.25;;;4.17;95.93
36692;BME280;22678;52.052;4.242;2022-11-21T03:26:44;100596.75;;;4.24;96.26
36692;BME280;22678;52.052;4.242;2022-11-21T03:29:09;100533.72;;;3.82;96.20
36692;BME280;22678;52.052;4.242;2022-11-21T03:31:34;100579.25;;;4.13;96.41
36692;BME280;22678;52.052;4.242;2022-11-21T03:34:00;100583.59;;;4.13;96.07
36692;BME280;22678;52.052;4.242;2022-11-21T03:36:25;100592.28;;;4.15;96.40
36692;BME280;22678;52.052;4.242;2022-11-21T03:38:50;100574.88;;;4.09;95.85
36692;BME280;22678;52.052;4.242;2022-11-21T03:41:15;100575.78;;;4.13;96.07
36692;BME280;22678;52.052;4.242;2022-11-21T03:44:00;100575.78;;;4.11;96.05
36692;BME280;22678;52.052;4.242;2022-11-21T03:46:27;100560.94;;;4.06;96.40
36692;BME280;22678;52.052;4.242;2022-11-21T03:48:53;100555.69;;;4.02;96.12
36692;BME280;22678;52.052;4.242;2022-11-21T03:51:19;100558.31;;;4.04;96.11
36692;BME280;22678;52.052;4.242;2022-11-21T03:53:45;100563.59;;;4.10;96.07
36692;BME280;22678;52.052;4.242;2022-11-21T03:56:10;100562.59;;;4.00;96.22
36692;BME280;22678;52.052;4.242;2022-11-21T03:58:36;100563.44;;;3.98;96.11
36692;BME280;22678;52.052;4.242;2022-11-21T04:01:01;100566.00;;;3.93;95.88
36692;BME280;22678;52.052;4.242;2022-11-21T04:03:27;100563.28;;;3.89;95.86
36692;BME280;22678;52.052;4.242;2022-11-21T04:05:52;100556.31;;;3.83;96.23
36692;BME280;22678;52.052;4.242;2022-11-21T04:08:17;100572.88;;;3.91;96.00
36692;BME280;22678;52.052;4.242;2022-11-21T04:10:50;100579.81;;;3.89;96.18
36692;BME280;22678;52.052;4.242;2022-11-21T04:13:16;100560.59;;;3.81;96.15
36692;BME280;22678;52.052;4.242;2022-11-21T04:15:42;100565.94;;;3.90;96.15
36692;BME280;22678;52.052;4.242;2022-11-21T04:18:07;100574.59;;;3.89;96.58
36692;BME280;22678;52.052;4.242;2022-11-21T04:20:33;100558.88;;;3.80;96.33
36692;BME280;22678;52.052;4.242;2022-11-21T04:22:59;100558.78;;;3.77;96.53
36692;BME280;22678;52.052;4.242;2022-11-21T04:25:24;100555.38;;;3.81;96.47
36692;BME280;22678;52.052;4.242;2022-11-21T04:27:49;100565.00;;;3.86;96.71
36692;BME280;22678;52.052;4.242;2022-11-21T04:30:15;100565.03;;;3.88;96.76
36692;BME280;22678;52.052;4.242;2022-11-21T04:32:40;100552.00;;;3.85;96.94
36692;BME280;22678;52.052;4.242;2022-11-21T04:35:06;100528.44;;;3.76;96.73
36692;BME280;22678;52.052;4.242;2022-11-21T04:37:31;100532.72;;;3.74;96.65
36692;BME280;22678;52.052;4.242;2022-11-21T04:39:56;100535.44;;;3.80;96.81
36692;BME280;22678;52.052;4.242;2022-11-21T04:42:22;100544.25;;;3.90;96.97
36692;BME280;22678;52.052;4.242;2022-11-21T04:44:48;100511.88;;;3.71;96.94
36692;BME280;22678;52.052;4.242;2022-11-21T04:47:13;100538.13;;;3.84;96.86
36692;BME280;22678;52.052;4.242;2022-11-21T04:49:38;100532.00;;;3.82;96.92
36692;BME280;22678;52.052;4.242;2022-11-21T04:52:04;100527.69;;;3.83;96.65
36692;BME280;22678;52.052;4.242;2022-11-21T04:54:29;100529.44;;;3.85;97.12
36692;BME280;22678;52.052;4.242;2022-11-21T04:56:54;100521.59;;;3.82;97.23
36692;BME280;22678;52.052;4.242;2022-11-21T04:59:20;100527.78;;;3.89;96.77
36692;BME280;22678;52.052;4.242;2022-11-21T05:01:45;100505.97;;;3.81;96.82
36692;BME280;22678;52.052;4.242;2022-11-21T05:04:10;100494.59;;;3.73;96.93
36692;BME280;22678;52.052;4.242;2022-11-21T05:06:35;100508.47;;;3.75;96.76
36692;BME280;22678;52.052;4.242;2022-11-21T05:09:01;100503.28;;;3.75;96.91
36692;BME280;22678;52.052;4.242;2022-11-21T05:11:26;100505.00;;;3.73;96.96
36692;BME280;22678;52.052;4.242;2022-11-21T05:14:10;100511.94;;;3.74;96.93
36692;BME280;22678;52.052;4.242;2022-11-21T05:16:35;100494.59;;;3.73;97.30
36692;BME280;22678;52.052;4.242;2022-11-21T05:19:00;100470.06;;;3.55;96.96
36692;BME280;22678;52.052;4.242;2022-11-21T05:21:26;100486.69;;;3.68;97.16
36692;BME280;22678;52.052;4.242;2022-11-21T05:23:51;100505.94;;;3.79;97.38
36692;BME280;22678;52.052;4.242;2022-11-21T05:26:16;100487.59;;;3.68;97.28
36692;BME280;22678;52.052;4.242;2022-11-21T05:28:42;100477.16;;;3.65;97.19
36692;BME280;22678;52.052;4.242;2022-11-21T05:31:07;100484.09;;;3.68;97.31
36692;BME280;22678;52.052;4.242;2022-11-21T05:33:32;100416.84;;;3.28;96.90
36692;BME280;22678;52.052;4.242;2022-11-21T05:35:57;100489.34;;;3.70;97.20
36692;BME280;22678;52.052;4.242;2022-11-21T05:38:23;100477.97;;;3.61;97.12
36692;BME280;22678;52.052;4.242;2022-11-21T05:40:50;100482.41;;;3.68;97.18
36692;BME280;22678;52.052;4.242;2022-11-21T05:43:16;100472.66;;;3.54;97.25
36692;BME280;22678;52.052;4.242;2022-11-21T05:46:00;100499.66;;;3.63;97.55
36692;BME280;22678;52.052;4.242;2022-11-21T05:48:25;100498.00;;;3.68;97.40
36692;BME280;22678;52.052;4.242;2022-11-21T05:50:50;100485.84;;;3.67;97.79
36692;BME280;22678;52.052;4.242;2022-11-21T05:53:16;100468.34;;;3.57;97.72
36692;BME280;22678;52.052;4.242;2022-11-21T05:55:41;100472.03;;;3.72;97.88
36692;BME280;22678;52.052;4.242;2022-11-21T05:58:07;100462.44;;;3.67;98.00
36692;BME280;22678;52.052;4.242;2022-11-21T06:00:33;100473.84;;;3.76;98.29
36692;BME280;22678;52.052;4.242;2022-11-21T06:02:58;100466.88;;;3.75;98.37
36692;BME280;22678;52.052;4.242;2022-11-21T06:05:42;100446.84;;;3.69;98.24
36692;BME280;22678;52.052;4.242;2022-11-21T06:08:07;100454.81;;;3.80;98.40
36692;BME280;22678;52.052;4.242;2022-11-21T06:10:32;100446.03;;;3.72;98.32
36692;BME280;22678;52.052;4.242;2022-11-21T06:12:59;100435.63;;;3.72;98.44
36692;BME280;22678;52.052;4.242;2022-11-21T06:15:25;100444.34;;;3.77;98.35
36692;BME280;22678;52.052;4.242;2022-11-21T06:17:50;100447.06;;;3.83;98.66
36692;BME280;22678;52.052;4.242;2022-11-21T06:20:15;100437.41;;;3.76;98.61
36692;BME280;22678;52.052;4.242;2022-11-21T06:22:41;100436.56;;;3.78;98.46
36692;BME280;22678;52.052;4.242;2022-11-21T06:25:06;100440.97;;;3.84;98.93
36692;BME280;22678;52.052;4.242;2022-11-21T06:27:31;100423.59;;;3.80;98.80
36692;BME280;22678;52.052;4.242;2022-11-21T06:29:57;100413.19;;;3.80;98.88
36692;BME280;22678;52.052;4.242;2022-11-21T06:32:22;100400.16;;;3.78;98.84
36692;BME280;22678;52.052;4.242;2022-11-21T06:34:47;100411.47;;;3.82;99.06
36692;BME280;22678;52.052;4.242;2022-11-21T06:37:13;100424.59;;;3.93;99.05
36692;BME280;22678;52.052;4.242;2022-11-21T06:39:38;100414.16;;;3.88;98.98
36692;BME280;22678;52.052;4.242;2022-11-21T06:42:03;100403.78;;;3.93;99.27
36692;BME280;22678;52.052;4.242;2022-11-21T06:44:29;100376.78;;;3.80;99.35
36692;BME280;22678;52.052;4.242;2022-11-21T06:46:54;100399.47;;;3.90;99.13
36692;BME280;22678;52.052;4.242;2022-11-21T06:49:19;100385.50;;;3.85;99.13
36692;BME280;22678;52.052;4.242;2022-11-21T06:51:46;100389.88;;;3.86;99.42
36692;BME280;22678;52.052;4.242;2022-11-21T06:54:11;100405.50;;;3.88;99.29
36692;BME280;22678;52.052;4.242;2022-11-21T06:56:37;100383.72;;;3.81;98.99
36692;BME280;22678;52.052;4.242;2022-11-21T06:59:02;100394.19;;;3.87;99.48
36692;BME280;22678;52.052;4.242;2022-11-21T07:01:27;100407.31;;;3.95;99.08
36692;BME280;22678;52.052;4.242;2022-11-21T07:03:53;100395.97;;;3.91;99.14
36692;BME280;22678;52.052;4.242;2022-11-21T07:06:18;100390.75;;;3.88;99.57
36692;BME280;22678;52.052;4.242;2022-11-21T07:08:43;100398.63;;;3.96;99.63
36692;BME280;22678;52.052;4.242;2022-11-21T07:11:11;100397.81;;;4.01;99.65
36692;BME280;22678;52.052;4.242;2022-11-21T07:13:36;100371.69;;;3.89;99.37
36692;BME280;22678;52.052;4.242;2022-11-21T07:16:09;100397.81;;;4.01;99.71
36692;BME280;22678;52.052;4.242;2022-11-21T07:18:39;100401.38;;;4.07;99.82
36692;BME280;22678;52.052;4.242;2022-11-21T07:21:05;100391.78;;;4.02;99.78
36692;BME280;22678;52.052;4.242;2022-11-21T07:23:32;100391.84;;;4.10;99.78
36692;BME280;22678;52.052;4.242;2022-11-21T07:26:02;100392.72;;;4.11;99.91
36692;BME280;22678;52.052;4.242;2022-11-21T07:28:29;100381.38;;;4.04;99.96
36692;BME280;22678;52.052;4.242;2022-11-21T07:30:58;100379.66;;;4.06;100.00
36692;BME280;22678;52.052;4.242;2022-11-21T07:33:24;100387.50;;;4.11;99.87
36692;BME280;22678;52.052;4.242;2022-11-21T07:35:49;100394.50;;;4.15;99.98
36692;BME280;22678;52.052;4.242;2022-11-21T07:38:15;100377.09;;;4.11;100.00
36692;BME280;22678;52.052;4.242;2022-11-21T07:40:40;100374.44;;;4.04;99.97
36692;BME280;22678;52.052;4.242;2022-11-21T07:43:06;100353.56;;;3.97;100.00
36692;BME280;22678;52.052;4.242;2022-11-21T07:45:32;100374.56;;;4.12;100.00
36692;BME280;22678;52.052;4.242;2022-11-21T07:48:02;100362.34;;;4.07;100.00
36692;BME280;22678;52.052;4.242;2022-11-21T07:50:28;100357.03;;;4.00;100.00
36692;BME280;22678;52.052;4.242;2022-11-21T07:53:00;100367.50;;;4.03;100.00
36692;BME280;22678;52.052;4.242;2022-11-21T07:55:26;100384.97;;;4.12;100.00
36692;BME280;22678;52.052;4.242;2022-11-21T07:58:00;100353.56;;;3.98;100.00
36692;BME280;22678;52.052;4.242;2022-11-21T08:00:26;100371.03;;;4.09;100.00
36692;BME280;22678;52.052;4.242;2022-11-21T08:02:52;100349.22;;;3.97;100.00
36692;BME280;22678;52.052;4.242;2022-11-21T08:05:17;100363.22;;;4.09;100.00
36692;BME280;22678;52.052;4.242;2022-11-21T08:07:43;100349.34;;;4.07;100.00
36692;BME280;22678;52.052;4.242;2022-11-21T08:10:08;100344.13;;;4.07;100.00
36692;BME280;22678;52.052;4.242;2022-11-21T08:12:33;100347.59;;;4.09;100.00
36692;BME280;22678;52.052;4.242;2022-11-21T08:14:59;100351.19;;;4.20;100.00
36692;BME280;22678;52.052;4.242;2022-11-21T08:17:27;100342.50;;;4.21;100.00
36692;BME280;22678;52.052;4.242;2022-11-21T08:19:52;100323.38;;;4.16;100.00
36692;BME280;22678;52.052;4.242;2022-11-21T08:22:17;100333.88;;;4.25;100.00
36692;BME280;22678;52.052;4.242;2022-11-21T08:24:43;100312.16;;;4.20;100.00
36692;BME280;22678;52.052;4.242;2022-11-21T08:27:08;100338.31;;;4.37;100.00
36692;BME280;22678;52.052;4.242;2022-11-21T08:29:33;100328.78;;;4.33;100.00
36692;BME280;22678;52.052;4.242;2022-11-21T08:31:59;100324.44;;;4.35;100.00
36692;BME280;22678;52.052;4.242;2022-11-21T08:34:25;100331.44;;;4.42;100.00
36692;BME280;22678;52.052;4.242;2022-11-21T08:36:50;100331.50;;;4.50;100.00
36692;BME280;22678;52.052;4.242;2022-11-21T08:39:15;100314.94;;;4.42;100.00
36692;BME280;22678;52.052;4.242;2022-11-21T08:41:41;100313.25;;;4.48;100.00
36692;BME280;22678;52.052;4.242;2022-11-21T08:44:25;100302.88;;;4.54;100.00
36692;BME280;22678;52.052;4.242;2022-11-21T08:46:50;100315.13;;;4.66;100.00
36692;BME280;22678;52.052;4.242;2022-11-21T08:49:15;100307.31;;;4.66;100.00
36692;BME280;22678;52.052;4.242;2022-11-21T08:51:40;100303.09;;;4.84;100.00
36692;BME280;22678;52.052;4.242;2022-11-21T08:54:08;100302.28;;;4.93;100.00
36692;BME280;22678;52.052;4.242;2022-11-21T08:56:33;100293.63;;;4.97;100.00
36692;BME280;22678;52.052;4.242;2022-11-21T08:58:58;100285.84;;;5.04;100.00
36692;BME280;22678;52.052;4.242;2022-11-21T09:01:24;100289.44;;;5.25;100.00
36692;BME280;22678;52.052;4.242;2022-11-21T09:03:49;100280.78;;;5.32;100.00
36692;BME280;22678;52.052;4.242;2022-11-21T09:06:14;100268.66;;;5.45;100.00
36692;BME280;22678;52.052;4.242;2022-11-21T09:08:39;100277.41;;;5.61;100.00
36692;BME280;22678;52.052;4.242;2022-11-21T09:11:06;100251.28;;;5.58;100.00
36692;BME280;22678;52.052;4.242;2022-11-21T09:13:32;100267.00;;;5.70;100.00
36692;BME280;22678;52.052;4.242;2022-11-21T09:15:58;100270.50;;;5.82;100.00
36692;BME280;22678;52.052;4.242;2022-11-21T09:18:43;100263.56;;;5.96;100.00
36692;BME280;22678;52.052;4.242;2022-11-21T09:21:13;100252.31;;;6.19;100.00
36692;BME280;22678;52.052;4.242;2022-11-21T09:23:38;100271.44;;;6.55;100.00
36692;BME280;22678;52.052;4.242;2022-11-21T09:26:03;100254.88;;;6.65;100.00
36692;BME280;22678;52.052;4.242;2022-11-21T09:28:29;100252.28;;;6.62;100.00
36692;BME280;22678;52.052;4.242;2022-11-21T09:30:54;100267.94;;;6.63;99.92
36692;BME280;22678;52.052;4.242;2022-11-21T09:33:19;100267.94;;;6.60;100.00
36692;BME280;22678;52.052;4.242;2022-11-21T09:35:45;100260.13;;;6.59;100.00
36692;BME280;22678;52.052;4.242;2022-11-21T09:38:10;100254.91;;;6.57;100.00
36692;BME280;22678;52.052;4.242;2022-11-21T09:40:35;100247.06;;;6.59;100.00
36692;BME280;22678;52.052;4.242;2022-11-21T09:45:55;100258.34;;;6.61;100.00
36692;BME280;22678;52.052;4.242;2022-11-21T09:48:37;100262.72;;;6.65;100.00
36692;BME280;22678;52.052;4.242;2022-11-21T09:51:10;100244.44;;;6.65;100.00
36692;BME280;22678;52.052;4.242;2022-11-21T09:53:57;100244.41;;;6.74;100.00
36692;BME280;22678;52.052;4.242;2022-11-21T09:56:24;100247.03;;;6.77;100.00
36692;BME280;22678;52.052;4.242;2022-11-21T10:01:41;100235.56;;;7.25;100.00
36692;BME280;22678;52.052;4.242;2022-11-21T10:04:06;100211.09;;;7.32;100.00
36692;BME280;22678;52.052;4.242;2022-11-21T10:09:18;100221.44;;;7.52;100.00
36692;BME280;22678;52.052;4.242;2022-11-21T10:12:43;100205.72;;;7.57;100.00
36692;BME280;22678;52.052;4.242;2022-11-21T10:26:14;100201.34;;;7.60;100.00
36692;BME280;22678;52.052;4.242;2022-11-21T10:28:54;100183.97;;;7.50;100.00
36692;BME280;22678;52.052;4.242;2022-11-21T10:31:22;100193.56;;;7.52;100.00
36692;BME280;22678;52.052;4.242;2022-11-21T10:33:50;100177.88;;;7.43;100.00
36692;BME280;22678;52.052;4.242;2022-11-21T10:36:30;100176.19;;;7.42;100.00
36692;BME280;22678;52.052;4.242;2022-11-21T10:39:01;100188.34;;;7.49;100.00
36692;BME280;22678;52.052;4.242;2022-11-21T10:41:42;100183.09;;;7.46;100.00
36692;BME280;22678;52.052;4.242;2022-11-21T10:44:27;100181.34;;;7.51;100.00
36692;BME280;22678;52.052;4.242;2022-11-21T10:47:16;100189.16;;;7.54;100.00
36692;BME280;22678;52.052;4.242;2022-11-21T10:49:54;100177.81;;;7.59;100.00
36692;BME280;22678;52.052;4.242;2022-11-21T10:52:24;100168.13;;;7.67;100.00
36692;BME280;22678;52.052;4.242;2022-11-21T10:57:28;100177.44;;;8.05;100.00
36692;BME280;22678;52.052;4.242;2022-11-21T11:02:24;100157.13;;;8.30;100.00
36692;BME280;22678;52.052;4.242;2022-11-21T11:07:41;100153.31;;;8.64;99.23
36692;BME280;22678;52.052;4.242;2022-11-21T11:10:15;100148.84;;;8.75;98.71
36692;BME280;22678;52.052;4.242;2022-11-21T11:12:47;100129.56;;;8.79;98.21
36692;BME280;22678;52.052;4.242;2022-11-21T11:15:32;100128.63;;;8.82;96.87
36692;BME280;22678;52.052;4.242;2022-11-21T11:18:02;100135.50;;;8.92;96.25
36692;BME280;22678;52.052;4.242;2022-11-21T11:22:58;100111.06;;;8.90;95.62
36692;BME280;22678;52.052;4.242;2022-11-21T11:25:24;100115.31;;;8.99;94.86
36692;BME280;22678;52.052;4.242;2022-11-21T11:27:50;100108.38;;;8.94;94.74
36692;BME280;22678;52.052;4.242;2022-11-21T11:30:16;100104.94;;;8.92;93.23
36692;BME280;22678;52.052;4.242;2022-11-21T11:32:42;100097.91;;;8.94;92.64
36692;BME280;22678;52.052;4.242;2022-11-21T11:37:42;100081.34;;;8.91;92.86
36692;BME280;22678;52.052;4.242;2022-11-21T11:43:00;100080.50;;;8.87;91.94
36692;BME280;22678;52.052;4.242;2022-11-21T11:48:52;100047.63;;;8.65;91.56
36692;BME280;22678;52.052;4.242;2022-11-21T11:51:27;100045.97;;;8.56;91.53
36692;BME280;22678;52.052;4.242;2022-11-21T11:54:01;100040.78;;;8.51;91.46
36692;BME280;22678;52.052;4.242;2022-11-21T11:56:35;100027.75;;;8.42;91.59
36692;BME280;22678;52.052;4.242;2022-11-21T12:01:40;100027.00;;;8.34;91.47
36692;BME280;22678;52.052;4.242;2022-11-21T12:04:12;100009.66;;;8.23;91.44
36692;BME280;22678;52.052;4.242;2022-11-21T12:09:41;100014.06;;;8.20;90.69
36692;BME280;22678;52.052;4.242;2022-11-21T12:12:37;100007.91;;;8.22;90.54
36692;BME280;22678;52.052;4.242;2022-11-21T12:15:16;99997.47;;;8.19;89.95
36692;BME280;22678;52.052;4.242;2022-11-21T12:21:13;99983.47;;;8.23;90.06
36692;BME280;22678;52.052;4.242;2022-11-21T12:37:31;99927.59;;;8.24;89.40
36692;BME280;22678;52.052;4.242;2022-11-21T12:43:22;99910.97;;;8.24;89.18
36692;BME280;22678;52.052;4.242;2022-11-21T12:51:43;99886.66;;;8.16;88.22
36692;BME280;22678;52.052;4.242;2022-11-21T12:57:14;99837.09;;;8.02;88.44
36692;BME280;22678;52.052;4.242;2022-11-21T13:00:05;99860.41;;;8.20;88.43
36692;BME280;22678;52.052;4.242;2022-11-21T13:05:40;99826.38;;;8.19;87.83
36692;BME280;22678;52.052;4.242;2022-11-21T13:08:10;99810.75;;;8.14;87.84
36692;BME280;22678;52.052;4.242;2022-11-21T13:10:44;99834.19;;;8.22;87.52
36692;BME280;22678;52.052;4.242;2022-11-21T13:13:22;99828.94;;;8.23;87.74
36692;BME280;22678;52.052;4.242;2022-11-21T13:16:06;99824.56;;;8.22;87.72
36692;BME280;22678;52.052;4.242;2022-11-21T13:18:45;99828.06;;;8.21;87.94
36692;BME280;22678;52.052;4.242;2022-11-21T13:21:41;99816.72;;;8.22;87.64
36692;BME280;22678;52.052;4.242;2022-11-21T13:24:08;99815.00;;;8.20;87.21
36692;BME280;22678;52.052;4.242;2022-11-21T13:29:14;99790.72;;;8.10;87.17
36692;BME280;22678;52.052;4.242;2022-11-21T13:31:40;99789.75;;;8.17;86.96
36692;BME280;22678;52.052;4.242;2022-11-21T13:36:55;99781.97;;;8.11;86.92
36692;BME280;22678;52.052;4.242;2022-11-21T13:39:32;99775.88;;;8.11;86.94
36692;BME280;22678;52.052;4.242;2022-11-21T13:44:42;99768.16;;;8.01;87.02
36692;BME280;22678;52.052;4.242;2022-11-21T13:47:10;99774.22;;;8.03;86.98
36692;BME280;22678;52.052;4.242;2022-11-21T13:55:24;99753.34;;;7.99;87.06
36692;BME280;22678;52.052;4.242;2022-11-21T14:06:38;99734.31;;;7.91;86.57
36692;BME280;22678;52.052;4.242;2022-11-21T14:09:29;99729.06;;;7.91;86.58
36692;BME280;22678;52.052;4.242;2022-11-21T14:12:00;99727.28;;;7.93;86.25
36692;BME280;22678;52.052;4.242;2022-11-21T14:14:32;99723.78;;;7.94;86.44
36692;BME280;22678;52.052;4.242;2022-11-21T14:17:23;99717.72;;;7.90;86.32
36692;BME280;22678;52.052;4.242;2022-11-21T14:19:53;99704.66;;;7.88;85.92
36692;BME280;22678;52.052;4.242;2022-11-21T14:22:25;99713.34;;;7.91;85.98
36692;BME280;22678;52.052;4.242;2022-11-21T14:24:52;99703.00;;;7.81;86.00
36692;BME280;22678;52.052;4.242;2022-11-21T14:27:26;99711.63;;;7.89;85.82
36692;BME280;22678;52.052;4.242;2022-11-21T14:29:52;99692.59;;;7.78;85.90
36692;BME280;22678;52.052;4.242;2022-11-21T14:32:24;99695.19;;;7.80;85.69
36692;BME280;22678;52.052;4.242;2022-11-21T14:34:50;99682.16;;;7.75;85.99
36692;BME280;22678;52.052;4.242;2022-11-21T14:37:15;99692.63;;;7.77;85.67
36692;BME280;22678;52.052;4.242;2022-11-21T14:39:41;99677.81;;;7.74;85.88
36692;BME280;22678;52.052;4.242;2022-11-21T14:42:12;99688.22;;;7.80;86.01
36692;BME280;22678;52.052;4.242;2022-11-21T14:44:39;99681.25;;;7.78;86.12
36692;BME280;22678;52.052;4.242;2022-11-21T14:47:13;99668.31;;;7.70;86.19
36692;BME280;22678;52.052;4.242;2022-11-21T14:49:54;99682.13;;;7.78;86.34
36692;BME280;22678;52.052;4.242;2022-11-21T14:52:24;99652.63;;;7.67;86.35
36692;BME280;22678;52.052;4.242;2022-11-21T14:54:55;99657.84;;;7.70;86.47